首页
METAR-TAF:

METAR-TAF

机场 :

路易斯·穆尼奥斯·马林国际机场

圣胡安, 波多黎哥, 美国

纬度: 18-27N, 经度: 066-00W, 海拔: 3米

当前天气观测

该预报发布于28分钟前的17:56 UTC
风速18节,风向东转东北,有时为23节阵风
温度 32°C
湿度 63%
气压 1018 hPa
能見度: 16.1公里
散云层高于3300英尺

METAR: TJSJ 081756Z 07018G23KT 10SM SCT033 32/24 A3007 RMK AO2 SLP182 T03170239 10322 20289 58013

时间: 14:24 (18:24 UTC)

预报

该预报发布于57分钟前的17:27 UTC
预报有效从08日的 18点(UTC)到 09日的 18点(UTC)
风速16节,风向东转东北,有时为20节阵风
能見度: 10公里
少量云层高于2500英尺
散云层高于4000英尺
从 09日的 0600点(UTC)
风速6节,风向东南
能見度: 10公里
散云层高于2400英尺
散云层高于5000英尺
附近有阵雨
从 09日的 1400点(UTC)
风速11节,风向
能見度: 10公里
少量云层高于3000英尺
少量云层高于5000英尺
从 09日的 1630点(UTC)
风速15节,风向东转东北
能見度: 10公里
散云层高于3500英尺

TAF: TJSJ 081727Z 0818/0918 07016G20KT P6SM FEW025 SCT040 FM090600 13006KT P6SM VCSH SCT024 SCT050 FM091400 09011KT P6SM FEW030 FEW050 FM091630 07015KT P6SM SCT035

超过4000个机场的气象观测和天气预报(METAR&TAF报告)。

可查询的气象台以黄色和红色小点在地图上表示。

将鼠标移到小点上方,可查看气象台名称。

然后点击查看天气观测和预报。

如需切换地图:点击带黑十字的绿色按钮放大地图;点击带横线的绿色按钮缩小地图;或者点击绿色箭头查看邻近地区的地图。


METAR-TAF: